Time;durP1;ratioP1;P1;durP2;ratioP2;P2;SDS_P1;SDS_P2;PMS_P1;PMS_P2;Temp;Humidity;BMP_temperature;BMP_pressure;BME280_temperature;BME280_humidity;BME280_pressure;Samples;Min_cycle;Max_cycle;Signal;HPM_P1;HPM_P2
2022/08/23 00:02:10;;;;;;;15.35;5.30;;;;;;;25.00;100.00;99481.16;5096075;28;20195;-78
2022/08/23 00:04:41;;;;;;;10.60;5.03;;;;;;;24.93;100.00;99470.00;5091623;28;20213;-76
2022/08/23 00:07:11;;;;;;;9.35;5.13;;;;;;;24.90;100.00;99475.44;5103560;28;20208;-78
2022/08/23 00:09:38;;;;;;;11.05;4.55;;;;;;;24.89;100.00;99481.72;5109970;28;20199;-77
2022/08/23 00:12:11;;;;;;;12.75;5.07;;;;;;;24.85;100.00;99474.00;5109405;28;20205;-77
2022/08/23 00:14:42;;;;;;;12.45;5.68;;;;;;;24.80;100.00;99460.94;5111827;28;20228;-76
2022/08/23 00:17:10;;;;;;;9.07;4.85;;;;;;;24.73;100.00;99482.56;5109698;28;20620;-78
2022/08/23 00:19:38;;;;;;;9.15;4.72;;;;;;;24.61;100.00;99484.06;5105080;28;20228;-78
2022/08/23 00:22:06;;;;;;;9.85;5.15;;;;;;;24.40;100.00;99470.09;5105603;28;20201;-76
2022/08/23 00:24:33;;;;;;;8.23;4.82;;;;;;;24.52;100.00;99484.53;5111372;28;20198;-77
2022/08/23 00:27:03;;;;;;;9.50;4.85;;;;;;;24.61;100.00;99486.72;5102868;28;20186;-77
2022/08/23 00:29:35;;;;;;;9.68;5.72;;;;;;;24.25;100.00;99451.50;5091151;28;20206;-77
2022/08/23 00:32:02;;;;;;;10.15;5.45;;;;;;;24.24;100.00;99463.03;5108808;28;20205;-77
2022/08/23 00:34:30;;;;;;;9.32;5.53;;;;;;;24.02;100.00;99421.69;5111280;28;20661;-77
2022/08/23 00:36:57;;;;;;;11.52;4.95;;;;;;;24.25;100.00;99489.44;5064455;28;20242;-77
2022/08/23 00:39:24;;;;;;;13.27;5.53;;;;;;;24.19;100.00;99487.94;5090538;28;20218;-77
2022/08/23 00:41:51;;;;;;;10.63;5.50;;;;;;;23.90;100.00;99480.53;5104590;28;20199;-77
2022/08/23 00:50:06;;;;;;;11.68;5.55;;;;;;;24.17;100.00;99483.66;5060559;28;20286;-77
2022/08/23 00:52:40;;;;;;;10.27;5.05;;;;;;;24.24;100.00;99484.22;5098214;28;20193;-76
2022/08/23 00:55:07;;;;;;;9.23;5.28;;;;;;;24.13;100.00;99477.66;5110756;28;20212;-77
2022/08/23 00:57:36;;;;;;;14.90;5.15;;;;;;;24.05;100.00;99471.84;5098497;28;20662;-76
2022/08/23 01:00:05;;;;;;;7.15;5.38;;;;;;;24.08;100.00;99474.34;5093650;28;20221;-75
2022/08/23 01:02:34;;;;;;;9.38;5.78;;;;;;;24.10;100.00;99459.25;5031347;28;20216;-75
2022/08/23 01:05:05;;;;;;;10.38;5.45;;;;;;;24.15;100.00;99464.38;5107469;28;20193;-75
2022/08/23 01:07:44;;;;;;;8.70;5.05;;;;;;;24.22;100.00;99464.91;5101165;28;20600;-76
2022/08/23 01:10:17;;;;;;;13.05;4.97;;;;;;;24.09;100.00;99468.13;5109128;28;20193;-76
2022/08/23 01:12:50;;;;;;;13.18;5.15;;;;;;;23.93;100.00;99455.72;5110633;28;20205;-76
2022/08/23 01:15:23;;;;;;;11.20;5.00;;;;;;;23.99;100.00;99469.53;5110697;28;20284;-77
2022/08/23 01:17:56;;;;;;;6.25;4.88;;;;;;;24.10;100.00;99466.34;5068922;28;20205;-76
2022/08/23 01:20:25;;;;;;;15.38;4.90;;;;;;;24.03;100.00;99480.81;5103566;28;20229;-76
2022/08/23 01:22:58;;;;;;;6.47;4.47;;;;;;;23.80;100.00;99463.41;5090548;28;20206;-76
2022/08/23 01:25:30;;;;;;;13.25;4.65;;;;;;;23.94;100.00;99482.13;5094405;28;20196;-76
2022/08/23 01:27:58;;;;;;;9.13;4.53;;;;;;;23.94;100.00;99486.56;5096171;28;20194;-77
2022/08/23 01:30:27;;;;;;;10.45;4.97;;;;;;;23.60;100.00;99455.56;5100532;28;20204;-77
2022/08/23 01:32:58;;;;;;;15.63;5.43;;;;;;;23.73;100.00;99477.88;5071284;28;20348;-77
2022/08/23 01:35:33;;;;;;;8.90;5.10;;;;;;;23.90;100.00;99483.19;5091863;28;20295;-77
2022/08/23 01:38:00;;;;;;;8.85;5.68;;;;;;;23.86;100.00;99481.66;5105138;28;20220;-76
2022/08/23 01:40:29;;;;;;;12.98;4.97;;;;;;;23.87;100.00;99482.50;5110211;28;20232;-76
2022/08/23 01:42:55;;;;;;;11.20;5.15;;;;;;;23.68;100.00;99462.22;5110697;28;20197;-76
2022/08/23 01:45:23;;;;;;;8.02;5.43;;;;;;;23.93;100.00;99482.22;5103658;28;20217;-76
2022/08/23 01:47:49;;;;;;;7.75;5.25;;;;;;;23.96;100.00;99485.56;5097122;28;20194;-76
2022/08/23 01:50:16;;;;;;;12.23;4.97;;;;;;;23.77;100.00;99484.72;5092697;28;20197;-76
2022/08/23 01:52:43;;;;;;;10.18;5.35;;;;;;;23.78;100.00;99490.88;5094010;28;20208;-76
2022/08/23 01:55:10;;;;;;;11.15;5.25;;;;;;;23.78;100.00;99486.47;5094357;28;20201;-76
2022/08/23 01:57:41;;;;;;;14.25;5.70;;;;;;;23.67;100.00;99481.69;5105251;28;20193;-76
2022/08/23 02:00:09;;;;;;;11.05;5.63;;;;;;;23.72;100.00;99485.91;5112553;28;20221;-76
2022/08/23 02:02:36;;;;;;;11.52;5.85;;;;;;;23.49;100.00;99492.28;5095350;28;20194;-77
2022/08/23 02:05:03;;;;;;;7.88;5.00;;;;;;;23.32;100.00;99471.00;5101504;28;20208;-77
2022/08/23 02:07:30;;;;;;;6.82;5.10;;;;;;;23.41;100.00;99483.78;5112692;28;20197;-78
2022/08/23 02:09:57;;;;;;;16.02;6.00;;;;;;;23.42;100.00;99496.13;5114157;28;20204;-76
2022/08/23 02:12:24;;;;;;;8.32;5.47;;;;;;;23.23;100.00;99473.16;5114111;28;20206;-76
2022/08/23 02:14:52;;;;;;;9.35;5.47;;;;;;;23.25;100.00;99499.53;5111960;28;20209;-77
2022/08/23 02:17:19;;;;;;;9.07;5.53;;;;;;;23.07;100.00;99466.00;5113217;28;20201;-76
2022/08/23 02:19:46;;;;;;;12.52;5.95;;;;;;;23.41;100.00;99491.72;5094998;28;20657;-77
2022/08/23 02:22:13;;;;;;;9.55;5.85;;;;;;;23.44;100.00;99496.91;5094114;28;20229;-76
2022/08/23 02:24:42;;;;;;;14.85;5.75;;;;;;;23.53;100.00;99492.06;5093627;28;20194;-76
2022/08/23 02:27:09;;;;;;;10.60;5.10;;;;;;;23.26;100.00;99466.00;5094931;28;20193;-75
2022/08/23 02:29:37;;;;;;;12.73;5.85;;;;;;;23.33;100.00;99464.78;5095872;28;20221;-76
2022/08/23 02:32:06;;;;;;;8.65;5.43;;;;;;;23.53;100.00;99496.50;5077724;28;20185;-77
2022/08/23 02:34:33;;;;;;;16.45;5.82;;;;;;;23.49;100.00;99479.03;5113641;28;20206;-77
2022/08/23 02:36:59;;;;;;;14.68;6.32;;;;;;;23.05;100.00;99438.75;5106733;28;20194;-77
2022/08/23 02:39:27;;;;;;;7.68;5.60;;;;;;;23.40;100.00;99495.34;5093495;28;20218;-76
2022/08/23 02:41:54;;;;;;;11.93;5.82;;;;;;;23.17;100.00;99494.59;5081977;28;20205;-79
2022/08/23 02:44:21;;;;;;;12.50;5.78;;;;;;;23.03;100.00;99465.28;5113568;28;20193;-76
2022/08/23 02:46:48;;;;;;;11.35;5.93;;;;;;;23.31;100.00;99501.91;5109307;28;20197;-75
2022/08/23 02:49:17;;;;;;;11.40;5.63;;;;;;;23.31;100.00;99503.69;5094500;28;20212;-76
2022/08/23 02:51:44;;;;;;;11.55;5.97;;;;;;;23.38;100.00;99513.06;5077117;28;20193;-76
2022/08/23 02:54:12;;;;;;;7.68;5.68;;;;;;;23.39;100.00;99512.13;5113909;28;20205;-77
2022/08/23 02:56:39;;;;;;;11.35;5.72;;;;;;;23.46;100.00;99521.53;5111452;28;20204;-77
2022/08/23 02:59:06;;;;;;;14.98;6.25;;;;;;;23.41;100.00;99518.19;5093209;28;20237;-77
2022/08/23 03:01:35;;;;;;;11.95;6.28;;;;;;;23.30;100.00;99520.47;5093364;28;20213;-75
2022/08/23 03:04:03;;;;;;;10.68;6.15;;;;;;;23.30;100.00;99509.88;5106939;28;20197;-76
2022/08/23 03:06:32;;;;;;;8.30;6.53;;;;;;;23.51;100.00;99519.50;5106637;28;20194;-77
2022/08/23 03:08:59;;;;;;;9.77;6.38;;;;;;;23.34;100.00;99522.06;5083824;28;20198;-77
2022/08/23 03:11:26;;;;;;;8.27;5.75;;;;;;;23.43;100.00;99529.63;5106346;28;20208;-77
2022/08/23 03:13:55;;;;;;;13.02;5.90;;;;;;;23.42;100.00;99502.28;5112398;28;20580;-77
2022/08/23 03:16:23;;;;;;;11.40;6.82;;;;;;;23.42;100.00;99520.81;5063852;28;20191;-77
2022/08/23 03:18:50;;;;;;;17.95;7.03;;;;;;;23.48;100.00;99540.84;5104905;28;20194;-77
2022/08/23 03:21:17;;;;;;;11.05;6.55;;;;;;;23.45;100.00;99546.28;5107884;28;20209;-77
2022/08/23 03:23:46;;;;;;;15.35;6.88;;;;;;;23.56;100.00;99538.69;5113130;28;20194;-76
2022/08/23 03:26:14;;;;;;;10.43;6.60;;;;;;;23.43;100.00;99540.19;5068352;28;20189;-77
2022/08/23 03:28:43;;;;;;;13.27;6.90;;;;;;;23.47;100.00;99542.63;5094875;28;20206;-76
2022/08/23 03:31:11;;;;;;;10.75;6.60;;;;;;;23.51;100.00;99541.53;5092682;28;20198;-77
2022/08/23 03:33:38;;;;;;;10.50;6.55;;;;;;;23.51;100.00;99541.53;5092146;28;20206;-77
2022/08/23 03:36:07;;;;;;;19.42;7.47;;;;;;;23.42;100.00;99535.84;5093490;28;20201;-77
2022/08/23 03:38:34;;;;;;;12.30;7.15;;;;;;;23.31;100.00;99553.94;5093561;28;20237;-77
2022/08/23 03:41:02;;;;;;;15.07;6.68;;;;;;;23.47;100.00;99557.66;5087107;28;20225;-75
2022/08/23 03:43:29;;;;;;;9.07;6.57;;;;;;;23.43;100.00;99558.72;5112211;28;20245;-76
2022/08/23 03:45:57;;;;;;;15.20;7.43;;;;;;;23.42;100.00;99578.16;5084448;28;20206;-76
2022/08/23 03:48:24;;;;;;;13.20;7.03;;;;;;;23.36;100.00;99557.25;5107051;28;20216;-76
2022/08/23 03:50:51;;;;;;;14.18;6.55;;;;;;;23.38;100.00;99566.84;5102962;28;20288;-76
2022/08/23 03:53:18;;;;;;;12.82;6.90;;;;;;;23.43;100.00;99562.25;5096919;28;20202;-76
2022/08/23 03:55:46;;;;;;;11.38;6.60;;;;;;;23.65;100.00;99576.19;5093323;28;20728;-76
2022/08/23 03:58:14;;;;;;;9.68;7.13;;;;;;;23.69;100.00;99576.88;5098936;28;20205;-76
2022/08/23 04:00:41;;;;;;;10.77;6.72;;;;;;;23.57;100.00;99566.88;5091878;28;20718;-77
2022/08/23 04:03:08;;;;;;;13.52;6.28;;;;;;;23.61;100.00;99577.28;5091110;28;20213;-77
2022/08/23 04:05:35;;;;;;;12.88;6.72;;;;;;;23.69;100.00;99558.34;5098197;28;20201;-78
2022/08/23 04:08:08;;;;;;;16.35;6.88;;;;;;;23.82;100.00;99582.50;5055898;28;20214;-78
2022/08/23 04:10:35;;;;;;;12.45;6.45;;;;;;;24.00;100.00;99571.03;5091615;28;20654;-77
2022/08/23 04:13:02;;;;;;;10.23;6.40;;;;;;;24.16;100.00;99585.28;5090816;28;20201;-77
2022/08/23 04:15:30;;;;;;;11.32;6.45;;;;;;;24.22;100.00;99592.09;5091600;28;20198;-77
2022/08/23 04:17:59;;;;;;;8.55;6.22;;;;;;;24.32;100.00;99588.03;5093835;28;20263;-76
2022/08/23 04:20:26;;;;;;;10.55;5.90;;;;;;;24.08;100.00;99576.78;5107699;28;20279;-77
2022/08/23 04:22:54;;;;;;;11.35;6.18;;;;;;;24.11;100.00;99580.16;5113474;28;20271;-77
2022/08/23 04:25:21;;;;;;;11.35;6.45;;;;;;;24.17;100.00;99585.22;5105974;27;20213;-78
2022/08/23 04:27:49;;;;;;;11.13;6.22;;;;;;;24.52;100.00;99586.13;5065308;28;20199;-78
2022/08/23 04:30:18;;;;;;;9.10;6.00;;;;;;;24.83;100.00;99596.06;5078114;28;20198;-76
2022/08/23 04:32:47;;;;;;;11.00;6.70;;;;;;;25.16;100.00;99604.09;5088978;28;20676;-77
2022/08/23 04:35:14;;;;;;;12.45;6.43;;;;;;;24.89;100.00;99606.38;5092497;28;20217;-77
2022/08/23 04:37:40;;;;;;;9.38;5.75;;;;;;;25.27;100.00;99590.25;5056178;28;20217;-76
2022/08/23 04:42:53;;;;;;;14.00;6.13;;;;;;;25.93;100.00;99602.59;5075118;28;20192;-76
2022/08/23 04:45:19;;;;;;;8.98;6.32;;;;;;;26.14;100.00;99606.69;5098875;28;20190;-75
2022/08/23 04:47:48;;;;;;;10.02;6.35;;;;;;;26.18;100.00;99607.41;5103159;28;20225;-73
2022/08/23 04:50:15;;;;;;;9.07;6.28;;;;;;;25.96;100.00;99606.88;5101771;28;20190;-71
2022/08/23 04:52:42;;;;;;;12.25;6.28;;;;;;;25.40;100.00;99601.97;5098809;28;20653;-76
2022/08/23 04:55:09;;;;;;;14.15;7.32;;;;;;;25.36;100.00;99600.41;5077363;28;20197;-74
2022/08/23 04:57:36;;;;;;;7.95;5.63;;;;;;;25.88;100.00;99609.94;5090516;28;20233;-74
2022/08/23 05:00:06;;;;;;;9.27;6.90;;;;;;;25.90;100.00;99610.69;5091378;28;20240;-77
2022/08/23 05:02:32;;;;;;;15.68;8.10;;;;;;;25.77;100.00;99596.38;5054900;28;20595;-77
2022/08/23 05:05:01;;;;;;;10.02;6.45;;;;;;;26.34;100.00;99570.16;5091582;28;20194;-77
2022/08/23 05:07:28;;;;;;;10.45;6.00;;;;;;;26.67;100.00;99616.09;5090598;28;20206;-77
2022/08/23 05:09:55;;;;;;;8.38;5.82;;;;;;;26.77;100.00;99601.28;5072516;28;20213;-76
2022/08/23 05:12:21;;;;;;;10.93;5.63;;;;;;;26.88;100.00;99612.19;5071794;28;20194;-77
2022/08/23 05:14:48;;;;;;;9.02;5.75;;;;;;;27.17;100.00;99625.56;5074232;28;20602;-76
2022/08/23 05:17:15;;;;;;;10.52;5.85;;;;;;;28.20;100.00;99630.66;5093364;28;20201;-76
2022/08/23 05:19:42;;;;;;;9.73;5.22;;;;;;;27.76;100.00;99624.56;5092785;28;20207;-76
2022/08/23 05:22:10;;;;;;;14.00;5.90;;;;;;;28.01;100.00;99625.59;5082576;28;20576;-75
2022/08/23 05:24:37;;;;;;;10.65;5.72;;;;;;;27.28;100.00;99623.13;5098677;28;20643;-75
2022/08/23 05:27:04;;;;;;;8.98;5.22;;;;;;;27.20;100.00;99617.38;5085155;28;20642;-75
2022/08/23 05:29:31;;;;;;;10.65;5.88;;;;;;;26.67;100.00;99631.19;5079430;28;20651;-73
2022/08/23 05:31:57;;;;;;;16.67;5.40;;;;;;;26.72;100.00;99627.31;5090332;28;20209;-73
2022/08/23 05:34:25;;;;;;;13.02;6.15;;;;;;;26.42;100.00;99621.09;5090141;28;20213;-74
2022/08/23 05:36:52;;;;;;;14.75;5.70;;;;;;;26.43;100.00;99620.16;5093123;28;20202;-78
2022/08/23 05:39:21;;;;;;;10.10;6.13;;;;;;;26.29;100.00;99623.59;5094578;28;20305;-77
2022/08/23 05:41:47;;;;;;;11.55;5.60;;;;;;;25.81;100.00;99619.19;5075579;28;20236;-77
2022/08/23 05:44:14;;;;;;;10.07;5.75;;;;;;;25.54;100.00;99591.47;5073547;28;20202;-77
2022/08/23 05:46:41;;;;;;;17.95;6.40;;;;;;;25.28;100.00;99613.22;5087095;28;20196;-75
2022/08/23 05:49:11;;;;;;;13.60;6.40;;;;;;;25.17;100.00;99604.03;5089730;28;20193;-76
2022/08/23 05:51:38;;;;;;;10.63;6.82;;;;;;;25.34;100.00;99596.94;5089897;28;20202;-71
2022/08/23 05:54:08;;;;;;;10.20;6.55;;;;;;;25.82;100.00;99626.22;5081738;28;20191;-76
2022/08/23 05:56:38;;;;;;;14.88;6.50;;;;;;;26.19;100.00;99626.84;5080340;28;20579;-77
2022/08/23 05:59:07;;;;;;;10.88;6.28;;;;;;;26.29;100.00;99642.19;5086519;28;20234;-77
2022/08/23 06:01:35;;;;;;;12.50;5.55;;;;;;;25.94;100.00;99627.31;5079654;28;20229;-77
2022/08/23 06:04:04;;;;;;;9.88;6.03;;;;;;;26.03;100.00;99635.66;5087046;28;20209;-78
2022/08/23 06:06:31;;;;;;;10.25;5.85;;;;;;;25.78;100.00;99608.75;5077064;28;20468;-79
2022/08/23 06:08:58;;;;;;;13.43;6.88;;;;;;;25.93;100.00;99626.50;5083936;28;20292;-78
2022/08/23 06:11:27;;;;;;;10.38;6.15;;;;;;;26.40;100.00;99636.28;5084258;28;20208;-78
2022/08/23 06:13:58;;;;;;;10.15;6.47;;;;;;;26.61;100.00;99643.06;5078362;28;20629;-78
2022/08/23 06:16:28;;;;;;;12.68;6.10;;;;;;;26.33;100.00;99624.28;5083375;28;20595;-77
2022/08/23 06:18:57;;;;;;;14.07;6.47;;;;;;;26.61;100.00;99656.34;5078983;28;20213;-77
2022/08/23 06:21:25;;;;;;;13.18;6.60;;;;;;;26.46;100.00;99649.25;5069195;28;20280;-73
2022/08/23 06:23:52;;;;;;;9.98;6.35;;;;;;;26.76;100.00;99657.25;5081197;28;20202;-78
2022/08/23 06:26:21;;;;;;;10.27;5.90;;;;;;;27.01;100.00;99663.75;5082170;28;20674;-77
2022/08/23 06:28:50;;;;;;;7.05;6.20;;;;;;;26.65;100.00;99665.00;5089286;28;20273;-76
2022/08/23 06:31:44;;;;;;;10.95;6.25;;;;;;;27.02;100.00;99654.81;5089024;28;20225;-76
2022/08/23 06:34:08;;;;;;;9.40;6.63;;;;;;;26.92;100.00;99643.00;5087519;28;20199;-76
2022/08/23 06:36:35;;;;;;;10.68;6.68;;;;;;;27.13;100.00;99671.94;5065737;28;20202;-77
2022/08/23 06:39:03;;;;;;;8.68;6.05;;;;;;;27.33;100.00;99652.97;5091065;28;20321;-77
2022/08/23 06:41:30;;;;;;;12.32;6.28;;;;;;;27.59;100.00;99647.81;5056402;28;20229;-76
2022/08/23 06:43:57;;;;;;;13.13;6.63;;;;;;;27.78;100.00;99649.34;5085908;28;20206;-76
2022/08/23 06:46:27;;;;;;;8.20;6.13;;;;;;;27.95;100.00;99665.13;5090651;28;20202;-76
2022/08/23 06:48:55;;;;;;;12.02;6.30;;;;;;;27.64;100.00;99657.34;5092610;28;20198;-76
2022/08/23 06:51:24;;;;;;;10.00;7.03;;;;;;;27.82;100.00;99667.72;5078275;28;20195;-77
2022/08/23 06:53:53;;;;;;;15.40;7.25;;;;;;;27.49;100.00;99661.78;5084505;28;20202;-77
2022/08/23 06:56:21;;;;;;;12.20;6.10;;;;;;;27.83;100.00;99672.06;5084916;28;20199;-77
2022/08/23 06:58:48;;;;;;;12.55;6.72;;;;;;;27.70;100.00;99673.78;5086811;28;20193;-76
2022/08/23 07:01:22;;;;;;;9.23;6.70;;;;;;;27.80;100.00;99674.06;5091989;28;20724;-75
2022/08/23 07:03:55;;;;;;;11.40;6.70;;;;;;;27.53;100.00;99677.50;5092167;28;20193;-76
2022/08/23 07:06:22;;;;;;;15.02;6.75;;;;;;;27.42;100.00;99658.63;5092107;28;20295;-76
2022/08/23 07:08:49;;;;;;;15.65;7.20;;;;;;;27.40;100.00;99671.16;5092197;28;20198;-73
2022/08/23 07:11:16;;;;;;;14.88;6.93;;;;;;;27.72;100.00;99666.53;5080196;28;20206;-76
2022/08/23 07:13:42;;;;;;;12.27;7.03;;;;;;;27.68;100.00;99657.06;5090421;28;20416;-74
2022/08/23 07:16:10;;;;;;;13.15;6.72;;;;;;;27.53;100.00;99660.66;5084151;28;20198;-74
2022/08/23 07:18:36;;;;;;;12.95;7.47;;;;;;;27.70;100.00;99671.13;5086145;28;20221;-75
2022/08/23 07:21:06;;;;;;;15.90;7.13;;;;;;;27.62;100.00;99662.75;5090461;28;20606;-75
2022/08/23 07:23:35;;;;;;;14.13;7.60;;;;;;;27.66;100.00;99656.28;5091430;28;20255;-75
2022/08/23 07:26:03;;;;;;;11.25;7.32;;;;;;;27.81;100.00;99676.66;5086612;28;20667;-75
2022/08/23 07:28:30;;;;;;;10.80;6.82;;;;;;;27.92;100.00;99673.31;5083216;28;20203;-77
2022/08/23 07:31:06;;;;;;;8.90;6.75;;;;;;;27.85;100.00;99679.97;5086266;28;20199;-77
2022/08/23 07:33:33;;;;;;;12.48;6.75;;;;;;;28.17;100.00;99686.84;5087256;28;20206;-77
2022/08/23 07:36:00;;;;;;;9.52;7.07;;;;;;;28.38;100.00;99689.94;5048189;28;20201;-76
2022/08/23 07:38:28;;;;;;;12.15;6.90;;;;;;;28.51;100.00;99693.53;5077005;28;20722;-77
2022/08/23 07:40:55;;;;;;;10.20;7.22;;;;;;;28.63;100.00;99682.06;5080869;28;20280;-76
2022/08/23 07:43:22;;;;;;;9.02;6.80;;;;;;;28.55;100.00;99695.03;5084967;28;20209;-76
2022/08/23 07:45:49;;;;;;;10.38;7.45;;;;;;;28.66;100.00;99687.19;5081774;28;20217;-76
2022/08/23 07:48:16;;;;;;;11.85;7.25;;;;;;;28.84;100.00;99694.03;5071987;28;20198;-76
2022/08/23 07:50:51;;;;;;;10.40;6.88;;;;;;;29.14;100.00;99701.81;5085529;28;20228;-76
2022/08/23 07:53:18;;;;;;;11.02;7.13;;;;;;;29.13;100.00;99696.56;5076173;28;20197;-77
2022/08/23 07:55:46;;;;;;;13.88;6.97;;;;;;;28.97;100.00;99705.59;5080513;28;20199;-77
2022/08/23 07:58:13;;;;;;;10.20;6.78;;;;;;;29.00;100.00;99705.38;5079695;28;20202;-77
2022/08/23 08:00:40;;;;;;;11.10;6.72;;;;;;;29.02;100.00;99711.50;5085137;28;20230;-76
2022/08/23 08:03:08;;;;;;;12.13;6.57;;;;;;;29.07;100.00;99702.31;5081284;28;20217;-77
2022/08/23 08:05:34;;;;;;;9.57;7.45;;;;;;;29.10;100.00;99691.44;5086066;28;20206;-77
2022/08/23 08:08:02;;;;;;;7.90;6.38;;;;;;;29.16;100.00;99707.03;5089094;28;20206;-77
2022/08/23 08:10:28;;;;;;;7.80;6.55;;;;;;;28.97;100.00;99700.25;5070406;28;20570;-77
2022/08/23 08:12:57;;;;;;;11.23;6.40;;;;;;;29.19;100.00;99697.00;5073874;28;20206;-75
2022/08/23 08:15:24;;;;;;;9.82;7.13;;;;;;;29.27;100.00;99700.06;5080972;28;20595;-76
2022/08/23 08:17:51;;;;;;;7.40;6.70;;;;;;;29.41;100.00;99707.13;5086110;28;20198;-76
2022/08/23 08:20:18;;;;;;;7.82;5.72;;;;;;;29.08;100.00;99685.31;5074296;28;20222;-77
2022/08/23 08:22:46;;;;;;;9.27;5.68;;;;;;;29.17;100.00;99704.28;5081663;28;20223;-76
2022/08/23 08:25:14;;;;;;;7.90;6.40;;;;;;;29.51;100.00;99702.84;5081818;28;20214;-77
2022/08/23 08:27:41;;;;;;;12.95;6.32;;;;;;;29.49;100.00;99704.78;5068051;28;20636;-76
2022/08/23 08:30:11;;;;;;;7.32;6.18;;;;;;;29.53;100.00;99703.63;5080156;28;20198;-75
2022/08/23 08:32:38;;;;;;;8.07;5.57;;;;;;;29.34;100.00;99701.34;5090443;28;20206;-75
2022/08/23 10:13:45;;;;;;;8.48;4.03;;;;;;;30.34;71.86;99661.28;5107433;27;20527;-78
2022/08/23 10:16:21;;;;;;;9.65;4.30;;;;;;;30.75;67.89;99667.13;5107390;28;20688;-78
2022/08/23 10:18:56;;;;;;;6.00;4.00;;;;;;;30.66;67.84;99669.66;5107220;28;20193;-79
2022/08/23 10:21:33;;;;;;;6.63;3.85;;;;;;;30.98;67.39;99657.41;5107287;28;20193;-78
2022/08/23 10:24:22;;;;;;;7.45;4.20;;;;;;;31.13;64.76;99666.13;5107041;28;20584;-76
2022/08/23 10:30:01;;;;;;;10.70;4.30;;;;;;;31.62;62.78;99673.94;5080220;28;20197;-78
2022/08/23 10:32:39;;;;;;;8.45;4.53;;;;;;;32.00;60.43;99665.53;5086527;28;20211;-78
2022/08/23 10:35:25;;;;;;;7.15;3.85;;;;;;;31.91;58.20;99681.38;5102876;28;20219;-78
2022/08/23 10:38:04;;;;;;;5.72;3.40;;;;;;;32.01;58.07;99677.97;5106716;28;20196;-74
2022/08/23 10:40:38;;;;;;;4.45;4.05;;;;;;;32.07;56.67;99685.56;5106796;28;20203;-77
2022/08/23 10:43:15;;;;;;;5.38;3.80;;;;;;;31.96;57.92;99673.81;5106666;28;20231;-77
2022/08/23 10:45:46;;;;;;;4.75;3.83;;;;;;;31.79;57.51;99612.63;5106982;28;20201;-80
2022/08/23 10:48:26;;;;;;;8.10;3.92;;;;;;;32.13;56.52;99677.03;5106908;28;20219;-79
2022/08/23 10:50:56;;;;;;;9.55;4.25;;;;;;;32.04;57.69;99680.41;5106432;28;20740;-77
2022/08/23 10:53:30;;;;;;;5.90;4.47;;;;;;;32.17;56.89;99679.34;5106974;28;20588;-78
2022/08/23 10:56:05;;;;;;;5.47;3.97;;;;;;;32.28;57.20;99699.94;5106687;28;20196;-77
2022/08/23 10:58:37;;;;;;;5.90;4.28;;;;;;;32.49;55.51;99690.16;5106213;28;20214;-75
2022/08/23 11:01:07;;;;;;;5.18;3.90;;;;;;;32.73;55.18;99692.69;5106520;28;20279;-77
2022/08/23 11:03:42;;;;;;;3.90;3.67;;;;;;;32.56;54.57;99699.41;5106641;28;20235;-77
2022/08/23 11:06:44;;;;;;;5.15;3.58;;;;;;;32.33;56.00;99698.59;5106509;28;20257;-78
2022/08/23 11:09:43;;;;;;;7.32;3.45;;;;;;;32.65;54.23;99692.44;5063239;28;20656;-77
2022/08/23 11:12:20;;;;;;;6.70;3.85;;;;;;;32.95;53.60;99692.59;5003326;28;20228;-78
2022/08/23 11:14:57;;;;;;;6.35;3.65;;;;;;;33.18;53.67;99698.75;5003679;28;20239;-77
2022/08/23 11:17:31;;;;;;;4.40;3.67;;;;;;;33.13;52.43;99683.03;5003445;28;20192;-77
2022/08/23 11:20:00;;;;;;;7.93;3.85;;;;;;;32.74;52.51;99665.72;5003400;28;20205;-77
2022/08/23 11:22:29;;;;;;;9.27;3.83;;;;;;;33.14;53.12;99686.56;5003484;28;20224;-77
2022/08/23 11:25:00;;;;;;;6.50;4.05;;;;;;;33.33;53.11;99674.13;4991673;28;20569;-77
2022/08/23 11:27:30;;;;;;;6.57;4.05;;;;;;;33.02;51.43;99637.38;4990790;28;20197;-77
2022/08/23 11:29:57;;;;;;;7.53;3.95;;;;;;;33.50;50.43;99680.72;4990506;28;20201;-77
2022/08/23 11:32:45;;;;;;;6.18;3.70;;;;;;;33.32;50.18;99634.78;4990976;28;20197;-76
2022/08/23 11:35:38;;;;;;;6.00;3.60;;;;;;;33.22;50.50;99681.38;4990533;28;20241;-78
2022/08/23 11:38:06;;;;;;;10.13;3.70;;;;;;;33.40;50.45;99685.19;4990756;28;20616;-77
2022/08/23 11:40:54;;;;;;;9.68;3.92;;;;;;;32.53;52.17;99678.19;5031272;28;20195;-77
2022/08/23 11:43:26;;;;;;;6.25;3.90;;;;;;;32.61;53.09;99685.63;5048128;28;20226;-78
2022/08/23 11:45:53;;;;;;;6.75;3.85;;;;;;;32.83;52.92;99677.50;5016469;28;20191;-78
2022/08/23 11:48:36;;;;;;;6.63;3.60;;;;;;;32.64;50.39;99634.38;5052237;28;20207;-78
2022/08/23 11:51:26;;;;;;;6.25;3.70;;;;;;;33.10;52.68;99661.75;5092686;28;20593;-78
2022/08/23 11:54:12;;;;;;;7.25;4.10;;;;;;;33.26;54.04;99672.94;5092279;28;20206;-78
2022/08/23 11:56:53;;;;;;;6.57;4.28;;;;;;;33.28;58.85;99670.94;5092221;28;20560;-77
2022/08/23 11:59:57;;;;;;;7.45;4.93;;;;;;;32.92;63.65;99661.47;5092628;28;20232;-78
2022/08/23 12:02:33;;;;;;;9.05;4.65;;;;;;;32.68;66.82;99654.59;5049204;28;20242;-75
2022/08/23 12:05:07;;;;;;;10.55;4.20;;;;;;;32.82;67.40;99638.22;5049414;28;20713;-77
2022/08/23 12:07:47;;;;;;;7.15;4.30;;;;;;;32.27;72.08;99640.06;5049888;28;20195;-77
2022/08/23 12:10:16;;;;;;;7.85;4.40;;;;;;;31.95;74.92;99656.03;5049308;28;20314;-77
2022/08/23 12:12:43;;;;;;;8.95;4.80;;;;;;;31.81;74.40;99648.25;5049690;28;20242;-78
2022/08/23 12:15:13;;;;;;;8.07;4.25;;;;;;;32.26;77.35;99637.47;5049462;28;20683;-76
2022/08/23 12:18:11;;;;;;;7.45;4.20;;;;;;;32.51;71.35;99644.38;5049497;28;20342;-81
2022/08/23 12:20:40;;;;;;;15.52;4.90;;;;;;;32.60;67.38;99640.97;5050111;28;20230;-77
2022/08/23 12:23:20;;;;;;;4.93;4.10;;;;;;;32.06;71.38;99616.78;5032823;28;20223;-77
2022/08/23 12:25:59;;;;;;;7.35;3.88;;;;;;;32.30;73.10;99630.88;5048531;28;20195;-78
2022/08/23 12:28:41;;;;;;;7.93;4.55;;;;;;;31.99;77.27;99631.66;5044022;28;20210;-77
2022/08/23 12:31:16;;;;;;;13.35;4.90;;;;;;;31.68;82.02;99626.03;5047000;28;20199;-77
2022/08/23 12:33:55;;;;;;;14.93;4.50;;;;;;;32.17;80.23;99647.16;5048422;28;20211;-75
2022/08/23 12:36:33;;;;;;;11.57;4.80;;;;;;;31.85;82.64;99633.63;5046544;28;20201;-77
2022/08/23 12:39:06;;;;;;;11.93;4.68;;;;;;;32.07;81.67;99642.66;5062868;28;20209;-78
2022/08/23 12:41:48;;;;;;;7.45;4.40;;;;;;;31.75;81.60;99637.97;5088870;28;20193;-77
2022/08/23 12:44:19;;;;;;;18.42;5.47;;;;;;;31.77;83.48;99641.41;5088621;28;20689;-76
2022/08/23 12:46:48;;;;;;;11.93;4.88;;;;;;;31.87;82.70;99653.09;5090953;28;20198;-75
2022/08/23 12:49:25;;;;;;;10.25;4.75;;;;;;;31.64;82.49;99629.09;5092112;28;20198;-78
2022/08/23 12:51:56;;;;;;;5.07;4.13;;;;;;;31.69;82.09;99635.78;5089125;28;20660;-77
2022/08/23 12:54:32;;;;;;;14.10;4.88;;;;;;;31.35;83.24;99621.50;5091323;28;20301;-77
2022/08/23 12:56:59;;;;;;;8.25;4.88;;;;;;;31.69;82.97;99638.47;5091453;28;20603;-78
2022/08/23 12:59:39;;;;;;;8.13;4.63;;;;;;;31.57;82.23;99617.97;5092056;28;20197;-77
2022/08/23 13:02:11;;;;;;;9.52;5.05;;;;;;;31.73;82.14;99628.34;5092950;28;20209;-77
2022/08/23 13:04:40;;;;;;;13.60;4.60;;;;;;;31.69;82.94;99627.75;5091183;28;20280;-79
2022/08/23 13:07:12;;;;;;;8.60;4.18;;;;;;;31.60;82.85;99617.75;5092319;28;20229;-76
2022/08/23 13:09:42;;;;;;;7.55;3.92;;;;;;;31.54;84.04;99612.88;5091136;28;20696;-77
2022/08/23 13:12:10;;;;;;;12.10;4.35;;;;;;;31.14;84.34;99587.47;5055578;28;20233;-83
2022/08/23 13:14:43;;;;;;;7.10;4.70;;;;;;;31.32;83.32;99588.72;5091204;28;20638;-77
2022/08/23 13:17:21;;;;;;;7.97;3.75;;;;;;;31.18;84.00;99626.44;5088021;28;20190;-77
2022/08/23 13:19:49;;;;;;;9.13;4.25;;;;;;;30.58;85.28;99540.88;5090270;28;20204;-76
2022/08/23 13:22:23;;;;;;;9.27;4.32;;;;;;;31.24;85.00;99637.53;5089860;28;20193;-78
2022/08/23 13:25:04;;;;;;;6.93;3.90;;;;;;;31.10;83.67;99642.25;5090634;28;20185;-78
2022/08/23 13:27:37;;;;;;;7.10;4.00;;;;;;;31.44;82.75;99634.16;5080771;28;20209;-77